sensor_id;sensor_type;location;lat;lon;timestamp;temperature;humidity
43227;DHT22;28839;52.404;9.808;2023-03-01T00:03:09;-2.70;99.90
43227;DHT22;28839;52.404;9.808;2023-03-01T00:10:03;-2.80;99.90
43227;DHT22;28839;52.404;9.808;2023-03-01T00:16:58;-2.90;99.90
43227;DHT22;28839;52.404;9.808;2023-03-01T00:23:52;-2.90;99.90
43227;DHT22;28839;52.404;9.808;2023-03-01T00:30:46;-3.00;99.90
43227;DHT22;28839;52.404;9.808;2023-03-01T00:37:42;-3.00;99.90
43227;DHT22;28839;52.404;9.808;2023-03-01T00:44:35;-3.00;99.90
43227;DHT22;28839;52.404;9.808;2023-03-01T00:51:30;-3.10;99.90
43227;DHT22;28839;52.404;9.808;2023-03-01T00:58:25;-3.20;99.90
43227;DHT22;28839;52.404;9.808;2023-03-01T01:05:19;-3.30;99.90
43227;DHT22;28839;52.404;9.808;2023-03-01T01:12:14;-3.30;99.90
43227;DHT22;28839;52.404;9.808;2023-03-01T01:19:10;-3.40;99.90
43227;DHT22;28839;52.404;9.808;2023-03-01T01:26:07;-3.40;99.90
43227;DHT22;28839;52.404;9.808;2023-03-01T01:33:01;-3.50;99.90
43227;DHT22;28839;52.404;9.808;2023-03-01T01:39:56;-3.50;99.90
43227;DHT22;28839;52.404;9.808;2023-03-01T01:46:53;-3.70;99.90
43227;DHT22;28839;52.404;9.808;2023-03-01T01:53:52;-3.60;99.90
43227;DHT22;28839;52.404;9.808;2023-03-01T02:00:48;-3.70;99.90
43227;DHT22;28839;52.404;9.808;2023-03-01T02:07:43;-3.70;99.90
43227;DHT22;28839;52.404;9.808;2023-03-01T02:14:38;-3.80;99.90
43227;DHT22;28839;52.404;9.808;2023-03-01T02:21:38;-4.00;99.90
43227;DHT22;28839;52.404;9.808;2023-03-01T02:28:38;-4.00;99.90
43227;DHT22;28839;52.404;9.808;2023-03-01T02:35:34;-4.10;99.90
43227;DHT22;28839;52.404;9.808;2023-03-01T02:42:32;-4.00;99.90
43227;DHT22;28839;52.404;9.808;2023-03-01T02:49:30;-4.00;99.90
43227;DHT22;28839;52.404;9.808;2023-03-01T02:56:24;-4.10;99.90
43227;DHT22;28839;52.404;9.808;2023-03-01T03:03:20;-4.10;99.90
43227;DHT22;28839;52.404;9.808;2023-03-01T03:10:20;-4.00;99.90
43227;DHT22;28839;52.404;9.808;2023-03-01T03:17:14;-4.10;99.90
43227;DHT22;28839;52.404;9.808;2023-03-01T03:24:08;-4.20;99.90
43227;DHT22;28839;52.404;9.808;2023-03-01T03:31:05;-4.20;99.90
43227;DHT22;28839;52.404;9.808;2023-03-01T03:38:01;-4.30;99.90
43227;DHT22;28839;52.404;9.808;2023-03-01T03:44:58;-4.40;99.90
43227;DHT22;28839;52.404;9.808;2023-03-01T03:51:53;-4.40;99.90
43227;DHT22;28839;52.404;9.808;2023-03-01T03:58:47;-4.50;99.90
43227;DHT22;28839;52.404;9.808;2023-03-01T04:05:41;-4.60;99.90
43227;DHT22;28839;52.404;9.808;2023-03-01T04:12:37;-4.50;99.90
43227;DHT22;28839;52.404;9.808;2023-03-01T04:19:31;-4.60;99.90
43227;DHT22;28839;52.404;9.808;2023-03-01T04:26:28;-4.60;99.90
43227;DHT22;28839;52.404;9.808;2023-03-01T04:33:25;-4.70;99.90
43227;DHT22;28839;52.404;9.808;2023-03-01T04:40:19;-4.70;99.90
43227;DHT22;28839;52.404;9.808;2023-03-01T04:47:13;-4.70;99.90
43227;DHT22;28839;52.404;9.808;2023-03-01T04:54:08;-4.70;99.90
43227;DHT22;28839;52.404;9.808;2023-03-01T05:01:08;-4.70;99.90
43227;DHT22;28839;52.404;9.808;2023-03-01T05:08:07;-4.80;99.90
43227;DHT22;28839;52.404;9.808;2023-03-01T05:15:07;-4.80;99.90
43227;DHT22;28839;52.404;9.808;2023-03-01T05:22:01;-4.90;99.90
43227;DHT22;28839;52.404;9.808;2023-03-01T05:28:56;-5.00;99.90
43227;DHT22;28839;52.404;9.808;2023-03-01T05:35:52;-4.90;99.90
43227;DHT22;28839;52.404;9.808;2023-03-01T05:42:47;-5.00;99.90
43227;DHT22;28839;52.404;9.808;2023-03-01T05:49:41;-5.00;99.90
43227;DHT22;28839;52.404;9.808;2023-03-01T05:56:37;-5.10;99.90
43227;DHT22;28839;52.404;9.808;2023-03-01T06:03:30;-5.10;99.90
43227;DHT22;28839;52.404;9.808;2023-03-01T06:10:24;-5.10;99.90
43227;DHT22;28839;52.404;9.808;2023-03-01T06:17:20;-5.10;99.90
43227;DHT22;28839;52.404;9.808;2023-03-01T06:24:14;-5.00;99.90
43227;DHT22;28839;52.404;9.808;2023-03-01T06:31:08;-5.00;99.90
43227;DHT22;28839;52.404;9.808;2023-03-01T06:38:04;-4.80;99.90
43227;DHT22;28839;52.404;9.808;2023-03-01T06:44:58;-4.70;99.90
43227;DHT22;28839;52.404;9.808;2023-03-01T06:51:52;-3.80;99.90
43227;DHT22;28839;52.404;9.808;2023-03-01T06:58:47;-2.00;99.90
43227;DHT22;28839;52.404;9.808;2023-03-01T07:05:41;-0.70;99.90
43227;DHT22;28839;52.404;9.808;2023-03-01T07:12:35;-1.30;99.90
43227;DHT22;28839;52.404;9.808;2023-03-01T07:19:30;-0.80;99.90
43227;DHT22;28839;52.404;9.808;2023-03-01T07:26:24;-0.60;99.90
43227;DHT22;28839;52.404;9.808;2023-03-01T07:33:18;-0.50;99.90
43227;DHT22;28839;52.404;9.808;2023-03-01T07:40:13;-0.80;99.90
43227;DHT22;28839;52.404;9.808;2023-03-01T07:47:07;-0.40;99.90
43227;DHT22;28839;52.404;9.808;2023-03-01T07:54:01;0.20;99.90
43227;DHT22;28839;52.404;9.808;2023-03-01T08:01:01;0.20;99.90
43227;DHT22;28839;52.404;9.808;2023-03-01T08:07:54;0.30;99.90
43227;DHT22;28839;52.404;9.808;2023-03-01T08:14:49;0.90;99.90
43227;DHT22;28839;52.404;9.808;2023-03-01T08:21:44;1.30;99.90
43227;DHT22;28839;52.404;9.808;2023-03-01T08:28:38;1.20;99.90
43227;DHT22;28839;52.404;9.808;2023-03-01T08:35:32;1.40;99.90
43227;DHT22;28839;52.404;9.808;2023-03-01T08:42:28;2.00;99.90
43227;DHT22;28839;52.404;9.808;2023-03-01T08:49:22;2.60;99.90
43227;DHT22;28839;52.404;9.808;2023-03-01T08:56:16;3.30;99.90
43227;DHT22;28839;52.404;9.808;2023-03-01T09:03:13;3.90;99.90
43227;DHT22;28839;52.404;9.808;2023-03-01T09:10:08;3.70;99.90
43227;DHT22;28839;52.404;9.808;2023-03-01T09:17:02;4.20;99.90
43227;DHT22;28839;52.404;9.808;2023-03-01T09:23:57;4.20;99.90
43227;DHT22;28839;52.404;9.808;2023-03-01T09:30:52;4.60;99.90
43227;DHT22;28839;52.404;9.808;2023-03-01T09:37:45;4.60;99.90
43227;DHT22;28839;52.404;9.808;2023-03-01T09:44:45;5.20;99.90
43227;DHT22;28839;52.404;9.808;2023-03-01T09:51:42;5.60;99.90
43227;DHT22;28839;52.404;9.808;2023-03-01T09:58:47;5.20;99.90
43227;DHT22;28839;52.404;9.808;2023-03-01T10:05:49;5.70;99.90
43227;DHT22;28839;52.404;9.808;2023-03-01T10:12:45;6.90;99.90
43227;DHT22;28839;52.404;9.808;2023-03-01T10:19:41;7.40;99.90
43227;DHT22;28839;52.404;9.808;2023-03-01T10:26:44;7.40;99.90
43227;DHT22;28839;52.404;9.808;2023-03-01T10:33:41;6.70;99.90
43227;DHT22;28839;52.404;9.808;2023-03-01T10:40:36;6.30;99.90
43227;DHT22;28839;52.404;9.808;2023-03-01T10:47:44;6.10;99.90
43227;DHT22;28839;52.404;9.808;2023-03-01T10:54:38;6.20;99.90
43227;DHT22;28839;52.404;9.808;2023-03-01T11:01:35;5.80;99.90
43227;DHT22;28839;52.404;9.808;2023-03-01T11:08:34;6.10;99.90
43227;DHT22;28839;52.404;9.808;2023-03-01T11:15:28;6.00;99.90
43227;DHT22;28839;52.404;9.808;2023-03-01T11:22:23;6.10;99.90
43227;DHT22;28839;52.404;9.808;2023-03-01T11:29:27;6.20;99.90
43227;DHT22;28839;52.404;9.808;2023-03-01T11:36:28;5.90;99.90
43227;DHT22;28839;52.404;9.808;2023-03-01T11:43:28;6.10;99.90
43227;DHT22;28839;52.404;9.808;2023-03-01T11:50:30;6.20;99.90
43227;DHT22;28839;52.404;9.808;2023-03-01T11:57:41;6.00;99.90
43227;DHT22;28839;52.404;9.808;2023-03-01T12:04:57;6.10;99.90
43227;DHT22;28839;52.404;9.808;2023-03-01T12:12:05;5.90;99.90
43227;DHT22;28839;52.404;9.808;2023-03-01T12:19:20;5.70;99.90
43227;DHT22;28839;52.404;9.808;2023-03-01T12:26:22;6.00;99.90
43227;DHT22;28839;52.404;9.808;2023-03-01T12:33:22;6.20;99.90
43227;DHT22;28839;52.404;9.808;2023-03-01T12:40:44;6.40;99.90
43227;DHT22;28839;52.404;9.808;2023-03-01T12:47:58;5.90;99.90
43227;DHT22;28839;52.404;9.808;2023-03-01T12:54:58;5.90;99.90
43227;DHT22;28839;52.404;9.808;2023-03-01T13:02:00;5.90;99.90
43227;DHT22;28839;52.404;9.808;2023-03-01T13:09:00;5.80;99.90
43227;DHT22;28839;52.404;9.808;2023-03-01T13:16:21;6.30;99.90
43227;DHT22;28839;52.404;9.808;2023-03-01T13:23:25;5.80;99.90
43227;DHT22;28839;52.404;9.808;2023-03-01T13:30:47;5.90;99.90
43227;DHT22;28839;52.404;9.808;2023-03-01T13:37:43;5.90;99.90
43227;DHT22;28839;52.404;9.808;2023-03-01T13:44:37;5.80;99.90
43227;DHT22;28839;52.404;9.808;2023-03-01T13:51:32;5.70;99.90
43227;DHT22;28839;52.404;9.808;2023-03-01T13:58:30;5.80;99.90
43227;DHT22;28839;52.404;9.808;2023-03-01T14:05:24;6.20;99.90
43227;DHT22;28839;52.404;9.808;2023-03-01T14:12:26;6.60;99.90
43227;DHT22;28839;52.404;9.808;2023-03-01T14:19:25;6.50;99.90
43227;DHT22;28839;52.404;9.808;2023-03-01T14:26:21;6.30;99.90
43227;DHT22;28839;52.404;9.808;2023-03-01T14:33:21;6.50;99.90
43227;DHT22;28839;52.404;9.808;2023-03-01T14:40:23;6.40;99.90
43227;DHT22;28839;52.404;9.808;2023-03-01T14:47:25;6.30;99.90
43227;DHT22;28839;52.404;9.808;2023-03-01T14:54:24;6.30;99.90
43227;DHT22;28839;52.404;9.808;2023-03-01T15:01:20;6.30;99.90
43227;DHT22;28839;52.404;9.808;2023-03-01T15:08:18;6.30;99.90
43227;DHT22;28839;52.404;9.808;2023-03-01T15:15:35;6.40;99.90
43227;DHT22;28839;52.404;9.808;2023-03-01T15:22:31;6.60;99.90
43227;DHT22;28839;52.404;9.808;2023-03-01T15:29:28;6.50;99.90
43227;DHT22;28839;52.404;9.808;2023-03-01T15:36:36;6.70;99.90
43227;DHT22;28839;52.404;9.808;2023-03-01T15:43:41;6.80;99.90
43227;DHT22;28839;52.404;9.808;2023-03-01T15:50:36;6.60;99.90
43227;DHT22;28839;52.404;9.808;2023-03-01T15:57:32;6.60;99.90
43227;DHT22;28839;52.404;9.808;2023-03-01T16:04:27;6.70;99.90
43227;DHT22;28839;52.404;9.808;2023-03-01T16:11:21;6.50;99.90
43227;DHT22;28839;52.404;9.808;2023-03-01T16:18:15;6.40;99.90
43227;DHT22;28839;52.404;9.808;2023-03-01T16:25:11;6.20;99.90
43227;DHT22;28839;52.404;9.808;2023-03-01T16:32:05;5.90;99.90
43227;DHT22;28839;52.404;9.808;2023-03-01T16:38:59;5.90;99.90
43227;DHT22;28839;52.404;9.808;2023-03-01T16:45:56;5.70;99.90
43227;DHT22;28839;52.404;9.808;2023-03-01T16:52:51;5.70;99.90
43227;DHT22;28839;52.404;9.808;2023-03-01T16:59:45;5.30;99.90
43227;DHT22;28839;52.404;9.808;2023-03-01T17:06:40;4.90;99.90
43227;DHT22;28839;52.404;9.808;2023-03-01T17:13:34;4.80;99.90
43227;DHT22;28839;52.404;9.808;2023-03-01T17:27:39;4.40;99.90
43227;DHT22;28839;52.404;9.808;2023-03-01T17:34:34;4.00;99.90
43227;DHT22;28839;52.404;9.808;2023-03-01T17:41:28;3.70;99.90
43227;DHT22;28839;52.404;9.808;2023-03-01T17:48:23;3.60;99.90
43227;DHT22;28839;52.404;9.808;2023-03-01T17:55:18;3.20;99.90
43227;DHT22;28839;52.404;9.808;2023-03-01T18:02:12;2.80;99.90
43227;DHT22;28839;52.404;9.808;2023-03-01T18:09:08;2.50;99.90
43227;DHT22;28839;52.404;9.808;2023-03-01T18:16:07;2.20;99.90
43227;DHT22;28839;52.404;9.808;2023-03-01T18:23:01;2.00;99.90
43227;DHT22;28839;52.404;9.808;2023-03-01T18:29:56;1.80;99.90
43227;DHT22;28839;52.404;9.808;2023-03-01T18:36:50;1.50;99.90
43227;DHT22;28839;52.404;9.808;2023-03-01T18:43:45;1.30;99.90
43227;DHT22;28839;52.404;9.808;2023-03-01T18:50:40;1.70;99.90
43227;DHT22;28839;52.404;9.808;2023-03-01T18:57:34;1.70;99.90
43227;DHT22;28839;52.404;9.808;2023-03-01T19:04:28;1.60;99.90
43227;DHT22;28839;52.404;9.808;2023-03-01T19:11:24;1.60;99.90
43227;DHT22;28839;52.404;9.808;2023-03-01T19:18:18;1.60;99.90
43227;DHT22;28839;52.404;9.808;2023-03-01T19:25:12;1.60;99.90
43227;DHT22;28839;52.404;9.808;2023-03-01T19:32:07;1.50;99.90
43227;DHT22;28839;52.404;9.808;2023-03-01T19:39:03;1.60;99.90
43227;DHT22;28839;52.404;9.808;2023-03-01T19:45:57;1.70;99.90
43227;DHT22;28839;52.404;9.808;2023-03-01T19:52:53;1.50;99.90
43227;DHT22;28839;52.404;9.808;2023-03-01T19:59:46;1.40;99.90
43227;DHT22;28839;52.404;9.808;2023-03-01T20:06:43;1.40;99.90
43227;DHT22;28839;52.404;9.808;2023-03-01T20:13:39;1.40;99.90
43227;DHT22;28839;52.404;9.808;2023-03-01T20:20:33;1.00;99.90
43227;DHT22;28839;52.404;9.808;2023-03-01T20:27:26;0.60;99.90
43227;DHT22;28839;52.404;9.808;2023-03-01T20:34:22;0.40;99.90
43227;DHT22;28839;52.404;9.808;2023-03-01T20:41:15;0.20;99.90
43227;DHT22;28839;52.404;9.808;2023-03-01T20:48:09;0.10;99.90
43227;DHT22;28839;52.404;9.808;2023-03-01T20:55:06;0.00;99.90
43227;DHT22;28839;52.404;9.808;2023-03-01T21:02:00;-0.20;99.90
43227;DHT22;28839;52.404;9.808;2023-03-01T21:08:55;-0.30;99.90
43227;DHT22;28839;52.404;9.808;2023-03-01T21:15:55;-0.20;99.90
43227;DHT22;28839;52.404;9.808;2023-03-01T21:22:49;-0.40;99.90
43227;DHT22;28839;52.404;9.808;2023-03-01T21:29:44;-0.70;99.90
43227;DHT22;28839;52.404;9.808;2023-03-01T21:36:40;-0.80;99.90
43227;DHT22;28839;52.404;9.808;2023-03-01T21:43:35;-0.80;99.90
43227;DHT22;28839;52.404;9.808;2023-03-01T21:50:29;-0.80;99.90
43227;DHT22;28839;52.404;9.808;2023-03-01T21:57:24;-0.90;99.90
43227;DHT22;28839;52.404;9.808;2023-03-01T22:04:18;-0.90;99.90
43227;DHT22;28839;52.404;9.808;2023-03-01T22:11:12;-1.10;99.90
43227;DHT22;28839;52.404;9.808;2023-03-01T22:18:08;-1.10;99.90
43227;DHT22;28839;52.404;9.808;2023-03-01T22:25:03;-1.20;99.90
43227;DHT22;28839;52.404;9.808;2023-03-01T22:31:57;-1.40;99.90
43227;DHT22;28839;52.404;9.808;2023-03-01T22:38:53;-1.40;99.90
43227;DHT22;28839;52.404;9.808;2023-03-01T22:45:51;-1.50;99.90
43227;DHT22;28839;52.404;9.808;2023-03-01T22:52:45;-1.20;99.90
43227;DHT22;28839;52.404;9.808;2023-03-01T22:59:40;-1.20;99.90
43227;DHT22;28839;52.404;9.808;2023-03-01T23:06:34;-1.30;99.90
43227;DHT22;28839;52.404;9.808;2023-03-01T23:13:42;-1.50;99.90
43227;DHT22;28839;52.404;9.808;2023-03-01T23:20:37;-1.50;99.90
43227;DHT22;28839;52.404;9.808;2023-03-01T23:27:31;-1.60;99.90
43227;DHT22;28839;52.404;9.808;2023-03-01T23:34:28;-1.60;99.90
43227;DHT22;28839;52.404;9.808;2023-03-01T23:41:25;-1.70;99.90
43227;DHT22;28839;52.404;9.808;2023-03-01T23:48:19;-1.80;99.90
43227;DHT22;28839;52.404;9.808;2023-03-01T23:55:15;-1.60;99.90
